Azle, TX

4:09 PM CDT on July 01, 2015 (GMT -0500)
South of 199 | | Change Station
CLOSE
Current Station
Personal Weather Station
Location: Sanctuary, TX
Elevation: 800 ft
Nearby Weather Stations

Elev 800 ft 32.91 °N, 97.59 °W | Updated 8 seconds ago

Partly Cloudy
Partly Cloudy
93.1 °F
Feels Like 100 °F
N
2.0
Wind Variable Wind from SSE
Gusts 9.0 mph

Today
High -- | Low -- °F
--% Chance of Precip.
Yesterday
High -- | Low -- °F
Precip. -- in
6:25 AM 8:42 PM
Full, 100% visible
Pressure 29.91 in
Visibility 10.0 miles
Clouds Mostly Cloudy 6000 ft
Heat Index 100 °F
Dew Point 70 °F
Humidity 48%
Rainfall 0.00 in
Snow Depth Not available.
UV 5 out of 12
Pollen 5.20 out of 12
Air Quality Not available.
Flu Activity Not available.
METAR KNFW 012052Z 19017G23KT 10SM BKN060 34/21 A2996 RMK AO2 SLP128 T03390206 58018 $

More Conditions Fewer Conditions

Pressure 29.91 in
Visibility 10.0 miles
Clouds Mostly Cloudy 6000 ft
Heat Index 100 °F
Dew Point 70 °F
Humidity 48%
Rainfall 0.00 in
Snow Depth Not available.
UV 5 out of 12
Pollen 5.20 out of 12
Air Quality Not available.
Flu Activity Not available.
METAR KNFW 012052Z 19017G23KT 10SM BKN060 34/21 A2996 RMK AO2 SLP128 T03390206 58018 $

More Conditions Fewer Conditions

Nowcast | as of 2:19 PM CDT on July 1, 2015

A few thunderstorms will affect locations south of a Killeen to Palestine line through 4 PM. Brief heavy rainfall...gusty winds and occasional cloud to ground lightning will accompany these storms as they move north at 25 mph. Otherwise...a mostly sunny sky will prevail through late afternoon with temperatures warming through the lower and middle 90s.

×

10-Day Weather Forecast

×

Almanac

Astronomy

Jul. 01, 2015 Rise Set
Actual Time
Civil Twilight
Nautical Twilight
Astronomical Twilight
Moon
Length of Visible Light
Length of Day
Tomorrow will be .
, % of the Moon is Illuminated

Today's Extremes

State Highs State Lows

Community

WunderPhotos

Upload Photos

1,834,286 photos uploaded!

WunderBlogs® & News

Nearby

Air Quality

  Air Quality AQ Index Pollutant
Not available.

Snow Depth

Station Depth Elevation

Earthquake Activity

City Distance Mag. Time & Date
Minimum magnitude displayed is 2.5.

Coastal Water Temperatures

Place Temperature

Stations

Nearby Weather Stations

Station Location Temp. Windchill Dew Point Humidity Wind Precip. Elev Updated Type